Time;durP1;ratioP1;P1;durP2;ratioP2;P2;SDS_P1;SDS_P2;PMS_P1;PMS_P2;Temp;Humidity;BMP_temperature;BMP_pressure;BME280_temperature;BME280_humidity;BME280_pressure;Samples;Min_cycle;Max_cycle;Signal;HPM_P1;HPM_P2
2022/09/01 00:00:50;;;;;;;4.18;2.50;;;;;;;;;;8300813;28;20054;-90
2022/09/01 00:04:55;;;;;;;5.22;2.70;;;;;;;;;;8270650;28;20078;-90
2022/09/01 00:09:02;;;;;;;6.03;2.60;;;;;;;;;;8268181;28;20043;-90
2022/09/01 00:13:06;;;;;;;3.58;2.38;;;;;;;;;;8268021;28;20564;-90
2022/09/01 00:17:13;;;;;;;4.13;2.10;;;;;;;;;;8267784;28;20058;-91
2022/09/01 00:21:16;;;;;;;3.92;2.30;;;;;;;;;;8267662;28;20061;-90
2022/09/01 00:25:20;;;;;;;2.95;1.95;;;;;;;;;;8267642;28;20413;-90
2022/09/01 00:29:24;;;;;;;4.13;2.33;;;;;;;;;;8267453;28;20129;-90
2022/09/01 00:33:26;;;;;;;6.28;2.25;;;;;;;;;;8267460;28;20149;-91
2022/09/01 00:37:29;;;;;;;6.10;2.65;;;;;;;;;;8267293;28;20508;-91
2022/09/01 00:41:37;;;;;;;3.22;2.08;;;;;;;;;;8266813;28;20116;-91
2022/09/01 00:45:40;;;;;;;3.25;1.98;;;;;;;;;;8266950;28;20081;-91
2022/09/01 00:49:46;;;;;;;3.80;2.05;;;;;;;;;;8266783;28;20054;-91
2022/09/01 00:53:50;;;;;;;3.05;2.20;;;;;;;;;;8266737;28;20073;-90
2022/09/01 00:57:54;;;;;;;4.40;2.28;;;;;;;;;;8267066;28;20529;-91
2022/09/01 01:01:57;;;;;;;3.90;2.22;;;;;;;;;;8266503;28;20042;-90
2022/09/01 01:06:07;;;;;;;5.85;2.50;;;;;;;;;;8266336;28;20065;-90
2022/09/01 01:10:11;;;;;;;4.28;2.30;;;;;;;;;;8266240;28;20046;-90
2022/09/01 01:14:18;;;;;;;4.43;2.45;;;;;;;;;;8266099;28;20051;-91
2022/09/01 01:18:20;;;;;;;6.82;2.72;;;;;;;;;;8265898;28;20053;-90
2022/09/01 01:26:53;;;;;;;6.35;2.92;;;;;;;;;;8312619;28;20050;-90
2022/09/01 01:31:00;;;;;;;5.07;2.50;;;;;;;;;;8298008;28;20049;-91
2022/09/01 01:35:04;;;;;;;4.68;2.53;;;;;;;;;;8295680;28;20049;-91
2022/09/01 01:39:10;;;;;;;4.28;2.53;;;;;;;;;;8296020;28;20046;-92
2022/09/01 01:43:21;;;;;;;3.83;2.75;;;;;;;;;;8303417;28;20069;-92
2022/09/01 01:47:25;;;;;;;10.25;5.85;;;;;;;;;;8295785;28;20069;-90
2022/09/01 01:51:27;;;;;;;8.52;3.90;;;;;;;;;;8293648;28;20148;-92
2022/09/01 01:55:30;;;;;;;6.70;3.80;;;;;;;;;;8292529;28;20053;-90
2022/09/01 01:59:34;;;;;;;6.45;3.33;;;;;;;;;;8296245;28;20117;-91
2022/09/01 02:03:38;;;;;;;7.22;3.40;;;;;;;;;;8292616;28;20080;-91
2022/09/01 02:07:42;;;;;;;6.18;3.53;;;;;;;;;;8296608;28;20052;-91
2022/09/01 02:11:45;;;;;;;5.38;2.88;;;;;;;;;;8284919;28;20050;-91
2022/09/01 02:15:52;;;;;;;5.22;3.28;;;;;;;;;;8296626;28;20077;-91
2022/09/01 02:19:56;;;;;;;5.88;4.00;;;;;;;;;;8311832;28;20124;-90
2022/09/01 02:24:01;;;;;;;9.15;4.97;;;;;;;;;;8295833;28;20057;-92
2022/09/01 02:28:08;;;;;;;9.20;4.18;;;;;;;;;;8296508;28;20050;-90
2022/09/01 02:32:12;;;;;;;7.10;4.00;;;;;;;;;;8297015;28;20073;-90
2022/09/01 02:36:18;;;;;;;6.80;3.95;;;;;;;;;;8296945;28;20401;-90
2022/09/01 02:40:20;;;;;;;14.60;6.72;;;;;;;;;;8296789;28;20046;-90
2022/09/01 02:44:23;;;;;;;12.38;6.45;;;;;;;;;;8296683;28;20048;-90
2022/09/01 02:48:31;;;;;;;13.52;6.00;;;;;;;;;;8296608;28;20050;-91
2022/09/01 02:52:36;;;;;;;7.35;4.30;;;;;;;;;;8296672;28;20042;-90
2022/09/01 02:56:39;;;;;;;9.65;5.30;;;;;;;;;;8296529;28;20129;-90
2022/09/01 03:00:42;;;;;;;9.95;6.85;;;;;;;;;;8296352;28;20046;-91
2022/09/01 03:04:50;;;;;;;12.27;8.65;;;;;;;;;;8301661;28;20149;-91
2022/09/01 03:08:54;;;;;;;10.43;6.88;;;;;;;;;;8308412;28;20049;-91
2022/09/01 03:12:56;;;;;;;9.18;5.68;;;;;;;;;;8306156;28;20140;-90
2022/09/01 03:16:59;;;;;;;9.18;6.82;;;;;;;;;;8297888;28;20413;-91
2022/09/01 03:21:05;;;;;;;10.30;7.50;;;;;;;;;;8297452;28;20041;-91
2022/09/01 03:25:08;;;;;;;10.35;6.97;;;;;;;;;;8293222;28;20046;-92
2022/09/01 03:29:11;;;;;;;9.65;5.78;;;;;;;;;;8298750;28;20105;-90
2022/09/01 03:33:15;;;;;;;12.30;7.43;;;;;;;;;;8286297;28;20042;-91
2022/09/01 03:37:19;;;;;;;11.25;7.28;;;;;;;;;;8294862;28;20140;-90
2022/09/01 03:41:27;;;;;;;8.23;6.25;;;;;;;;;;8296281;28;20549;-90
2022/09/01 03:45:37;;;;;;;8.02;5.45;;;;;;;;;;8330574;28;20096;-91
2022/09/01 03:49:42;;;;;;;8.05;5.18;;;;;;;;;;8314075;28;20077;-91
2022/09/01 03:53:46;;;;;;;8.60;5.00;;;;;;;;;;8300159;28;20050;-90
2022/09/01 03:57:49;;;;;;;7.70;5.40;;;;;;;;;;8300516;28;20134;-91
2022/09/01 04:01:51;;;;;;;8.38;5.03;;;;;;;;;;8299900;28;20057;-91
2022/09/01 04:06:17;;;;;;;7.10;5.25;;;;;;;;;;8300358;28;20062;-92
2022/09/01 04:11:05;;;;;;;6.53;4.22;;;;;;;;;;8300312;28;20537;-91
2022/09/01 04:15:19;;;;;;;6.63;3.47;;;;;;;;;;8297036;28;20054;-92
2022/09/01 04:19:25;;;;;;;7.88;3.85;;;;;;;;;;8300488;28;20095;-92
2022/09/01 04:23:32;;;;;;;6.63;3.55;;;;;;;;;;8297133;28;20058;-91
2022/09/01 04:27:39;;;;;;;5.50;3.45;;;;;;;;;;8298863;28;20497;-92
2022/09/01 04:31:42;;;;;;;7.55;4.90;;;;;;;;;;8299561;28;20042;-91
2022/09/01 04:35:44;;;;;;;6.03;4.25;;;;;;;;;;8299630;28;20568;-91
2022/09/01 04:39:51;;;;;;;7.95;3.92;;;;;;;;;;8299690;28;20045;-91
2022/09/01 04:43:55;;;;;;;6.13;3.60;;;;;;;;;;8299793;28;20496;-91
2022/09/01 04:47:59;;;;;;;8.05;3.95;;;;;;;;;;8299626;28;20050;-92
2022/09/01 04:52:02;;;;;;;5.45;3.67;;;;;;;;;;8298871;28;20104;-93
2022/09/01 04:56:05;;;;;;;5.75;4.03;;;;;;;;;;8293473;28;20450;-90
2022/09/01 05:00:21;;;;;;;4.85;3.33;;;;;;;;;;8292507;28;20409;-92
2022/09/01 05:04:26;;;;;;;6.68;3.85;;;;;;;;;;8287538;28;20396;-91
2022/09/01 05:08:33;;;;;;;5.65;4.05;;;;;;;;;;8295015;28;20042;-92
2022/09/01 05:12:36;;;;;;;5.68;3.80;;;;;;;;;;8299074;28;20386;-92
2022/09/01 05:16:41;;;;;;;6.13;3.83;;;;;;;;;;8299349;28;20042;-93
2022/09/01 05:20:43;;;;;;;5.35;3.75;;;;;;;;;;8316999;28;20049;-91
2022/09/01 05:24:46;;;;;;;7.32;2.70;;;;;;;;;;8307219;28;20064;-95
2022/09/01 05:28:52;;;;;;;5.38;3.15;;;;;;;;;;8315459;28;20073;-93
2022/09/01 05:32:56;;;;;;;7.07;2.83;;;;;;;;;;8312950;28;20100;-94
2022/09/01 05:37:00;;;;;;;5.88;2.67;;;;;;;;;;8308776;28;20141;-93
2022/09/01 05:41:07;;;;;;;6.90;3.13;;;;;;;;;;8297719;28;20444;-94
2022/09/01 05:45:13;;;;;;;5.47;2.67;;;;;;;;;;8306074;28;20080;-90
2022/09/01 05:49:17;;;;;;;4.97;2.80;;;;;;;;;;8307058;28;20053;-92
2022/09/01 05:53:24;;;;;;;4.95;2.78;;;;;;;;;;8273716;28;20405;-96
2022/09/01 05:57:26;;;;;;;4.15;2.20;;;;;;;;;;8275078;28;20061;-92
2022/09/01 06:01:32;;;;;;;4.38;2.20;;;;;;;;;;8279714;28;20061;-91
2022/09/01 06:05:36;;;;;;;6.63;2.13;;;;;;;;;;8293592;28;20084;-93
2022/09/01 06:09:42;;;;;;;6.38;2.17;;;;;;;;;;8321048;28;20103;-94
2022/09/01 06:13:46;;;;;;;6.47;2.00;;;;;;;;;;8317958;28;20119;-92
2022/09/01 06:17:48;;;;;;;7.90;2.83;;;;;;;;;;8331002;28;20568;-92
2022/09/01 06:21:53;;;;;;;4.82;1.58;;;;;;;;;;8315929;28;20107;-92
2022/09/01 06:25:58;;;;;;;4.18;1.40;;;;;;;;;;8302749;28;20114;-92
2022/09/01 06:30:01;;;;;;;4.40;1.58;;;;;;;;;;8320579;28;20045;-92
2022/09/01 06:34:05;;;;;;;3.58;1.38;;;;;;;;;;8311737;28;20396;-92
2022/09/01 06:38:10;;;;;;;3.47;1.33;;;;;;;;;;8313580;28;20049;-92
2022/09/01 06:42:14;;;;;;;4.68;1.92;;;;;;;;;;8331736;28;20056;-92
2022/09/01 06:46:18;;;;;;;6.53;1.60;;;;;;;;;;8331572;28;20128;-92
2022/09/01 06:50:23;;;;;;;6.45;1.40;;;;;;;;;;8331934;28;20041;-92
2022/09/01 06:54:28;;;;;;;3.45;1.40;;;;;;;;;;8331073;28;20042;-92
2022/09/01 06:58:32;;;;;;;3.63;1.10;;;;;;;;;;8326101;28;20520;-93
2022/09/01 07:02:34;;;;;;;6.68;1.50;;;;;;;;;;8300511;28;20053;-93
2022/09/01 07:06:40;;;;;;;1.92;1.05;;;;;;;;;;8315769;28;20049;-93
2022/09/01 07:10:48;;;;;;;4.22;1.20;;;;;;;;;;8311788;28;20045;-93
2022/09/01 07:14:52;;;;;;;1.95;1.15;;;;;;;;;;8319427;28;20119;-92
2022/09/01 07:18:59;;;;;;;2.42;0.98;;;;;;;;;;8316465;28;20107;-92
2022/09/01 07:23:01;;;;;;;3.58;1.20;;;;;;;;;;8315986;28;20419;-92
2022/09/01 07:27:07;;;;;;;1.55;0.82;;;;;;;;;;8322689;28;20044;-93
2022/09/01 07:31:19;;;;;;;2.50;0.77;;;;;;;;;;8313708;28;20046;-92
2022/09/01 07:35:22;;;;;;;1.38;0.75;;;;;;;;;;8292762;28;20042;-92
2022/09/01 07:39:25;;;;;;;4.35;1.45;;;;;;;;;;8283356;28;20132;-93
2022/09/01 07:43:30;;;;;;;1.08;0.82;;;;;;;;;;8306757;28;20049;-92
2022/09/01 07:47:35;;;;;;;0.77;0.73;;;;;;;;;;8293725;28;20076;-90
2022/09/01 07:51:38;;;;;;;1.42;0.75;;;;;;;;;;8298271;28;20092;-92
2022/09/01 07:55:41;;;;;;;1.15;0.80;;;;;;;;;;8329161;28;20218;-92
2022/09/01 07:59:45;;;;;;;1.98;0.82;;;;;;;;;;8328927;28;20051;-90
2022/09/01 08:03:50;;;;;;;4.00;0.95;;;;;;;;;;8281409;28;20061;-93
2022/09/01 08:07:53;;;;;;;3.03;0.70;;;;;;;;;;8292289;28;20046;-91
2022/09/01 08:11:57;;;;;;;2.38;0.90;;;;;;;;;;8294619;28;20108;-92
2022/09/01 08:16:04;;;;;;;1.38;0.60;;;;;;;;;;8293312;28;20096;-92
2022/09/01 08:20:08;;;;;;;2.97;0.90;;;;;;;;;;8285832;28;20053;-92
2022/09/01 08:24:13;;;;;;;2.03;0.85;;;;;;;;;;8292060;28;20069;-92
2022/09/01 08:28:16;;;;;;;1.33;0.90;;;;;;;;;;8318032;28;20411;-93
2022/09/01 08:32:21;;;;;;;1.05;0.60;;;;;;;;;;8328268;28;20069;-91
2022/09/01 08:36:24;;;;;;;2.15;0.88;;;;;;;;;;8328222;28;20049;-92
2022/09/01 08:40:26;;;;;;;2.67;0.80;;;;;;;;;;8317021;28;20049;-92
2022/09/01 08:44:35;;;;;;;0.60;0.60;;;;;;;;;;8308714;28;20070;-92
2022/09/01 08:48:57;;;;;;;5.93;0.85;;;;;;;;;;8326493;28;20050;-92
2022/09/01 08:53:10;;;;;;;0.98;0.50;;;;;;;;;;8326161;28;20052;-92
2022/09/01 08:57:18;;;;;;;1.35;0.70;;;;;;;;;;8294080;28;20650;-95
2022/09/01 09:01:33;;;;;;;1.95;0.70;;;;;;;;;;8327543;28;20045;-94
2022/09/01 09:05:50;;;;;;;0.75;0.60;;;;;;;;;;8313856;28;20051;-90
2022/09/01 09:10:09;;;;;;;1.52;0.60;;;;;;;;;;8294727;28;20296;-94
2022/09/01 09:14:33;;;;;;;1.20;0.60;;;;;;;;;;8326478;28;20057;-92
2022/09/01 09:18:43;;;;;;;1.10;0.60;;;;;;;;;;8311793;28;20132;-93
2022/09/01 09:22:49;;;;;;;0.50;0.50;;;;;;;;;;8309493;28;20049;-93
2022/09/01 09:26:52;;;;;;;0.90;0.57;;;;;;;;;;8330080;28;20049;-92
2022/09/01 09:31:25;;;;;;;0.73;0.70;;;;;;;;;;8329869;28;20407;-91
2022/09/01 09:35:32;;;;;;;0.77;0.55;;;;;;;;;;8265684;28;20050;-92
2022/09/01 09:39:35;;;;;;;0.35;0.35;;;;;;;;;;8265523;28;20053;-93
2022/09/01 09:43:45;;;;;;;3.35;0.95;;;;;;;;;;8265628;28;20046;-93
2022/09/01 09:47:47;;;;;;;0.55;0.52;;;;;;;;;;8265569;28;20050;-92
2022/09/01 09:51:51;;;;;;;1.02;0.57;;;;;;;;;;8265253;28;20048;-91
2022/09/01 09:55:59;;;;;;;0.82;0.60;;;;;;;;;;8265089;28;20058;-92
2022/09/01 10:00:06;;;;;;;1.08;0.65;;;;;;;;;;8265469;28;20489;-91
2022/09/01 10:04:09;;;;;;;1.00;0.60;;;;;;;;;;8265038;28;20039;-91
2022/09/01 10:08:15;;;;;;;0.80;0.60;;;;;;;;;;8264972;28;20181;-91
2022/09/01 10:12:20;;;;;;;0.85;0.55;;;;;;;;;;8264329;28;20054;-92
2022/09/01 10:16:28;;;;;;;1.00;0.70;;;;;;;;;;8264728;28;20100;-92
2022/09/01 10:20:33;;;;;;;1.55;0.73;;;;;;;;;;8264635;28;20046;-92
2022/09/01 10:24:38;;;;;;;0.73;0.70;;;;;;;;;;8264459;28;20055;-93
2022/09/01 10:28:47;;;;;;;1.08;0.60;;;;;;;;;;8264151;28;20061;-92
2022/09/01 10:32:52;;;;;;;0.57;0.57;;;;;;;;;;8264676;28;20137;-93
2022/09/01 10:36:56;;;;;;;0.80;0.80;;;;;;;;;;8264431;28;20050;-91
2022/09/01 10:41:07;;;;;;;3.03;0.70;;;;;;;;;;8264294;28;20486;-91
2022/09/01 10:45:29;;;;;;;1.40;0.70;;;;;;;;;;8264217;28;20647;-91
2022/09/01 10:54:57;;;;;;;1.20;0.80;;;;;;;;;;8282489;28;20045;-94
2022/09/01 10:59:07;;;;;;;2.22;0.90;;;;;;;;;;8285818;28;20041;-92
2022/09/01 11:04:00;;;;;;;1.15;0.90;;;;;;;;;;8284888;28;20046;-92
2022/09/01 11:08:41;;;;;;;0.98;0.60;;;;;;;;;;8153978;29;20463;-93
2022/09/01 11:13:00;;;;;;;2.90;1.05;;;;;;;;;;8155534;29;20408;-92
2022/09/01 11:17:16;;;;;;;0.75;0.75;;;;;;;;;;8154592;29;20095;-92
2022/09/01 11:21:25;;;;;;;1.58;0.77;;;;;;;;;;8154967;29;20071;-92
2022/09/01 11:25:45;;;;;;;0.70;0.60;;;;;;;;;;8159706;29;20059;-91
2022/09/01 11:29:56;;;;;;;0.73;0.60;;;;;;;;;;8193643;29;20067;-91
2022/09/01 11:34:14;;;;;;;2.05;0.60;;;;;;;;;;8194628;29;20055;-90
2022/09/01 11:38:19;;;;;;;1.45;0.68;;;;;;;;;;8247987;28;20173;-91
2022/09/01 11:42:33;;;;;;;1.65;0.88;;;;;;;;;;8296436;28;20064;-91
2022/09/01 11:46:37;;;;;;;1.67;1.00;;;;;;;;;;8296756;28;20046;-90
2022/09/01 11:50:42;;;;;;;0.82;0.70;;;;;;;;;;8281564;28;20050;-90
2022/09/01 11:54:46;;;;;;;3.80;2.10;;;;;;;;;;8279835;28;20058;-91
2022/09/01 11:58:50;;;;;;;2.28;1.38;;;;;;;;;;8287036;28;20069;-90
2022/09/01 12:02:54;;;;;;;7.53;2.08;;;;;;;;;;8296171;28;20101;-90
2022/09/01 12:07:00;;;;;;;1.02;0.80;;;;;;;;;;8288236;28;20069;-92
2022/09/01 12:11:06;;;;;;;3.20;1.02;;;;;;;;;;8292550;28;20041;-91
2022/09/01 12:15:23;;;;;;;1.38;0.82;;;;;;;;;;8259466;28;20121;-91
2022/09/01 12:19:33;;;;;;;1.60;0.98;;;;;;;;;;8260896;28;20125;-91
2022/09/01 12:23:44;;;;;;;0.98;0.80;;;;;;;;;;8284266;28;20124;-91
2022/09/01 12:27:56;;;;;;;1.20;0.70;;;;;;;;;;8299411;28;20056;-91
2022/09/01 12:32:09;;;;;;;1.55;0.60;;;;;;;;;;8306410;28;20037;-92
2022/09/01 12:36:35;;;;;;;1.02;0.55;;;;;;;;;;8289263;28;20049;-91
2022/09/01 12:40:46;;;;;;;3.90;0.75;;;;;;;;;;8290122;28;20076;-91
2022/09/01 12:45:00;;;;;;;4.72;0.75;;;;;;;;;;8289527;28;20524;-91
2022/09/01 12:53:37;;;;;;;3.50;1.10;;;;;;;;;;8418515;27;3434864;-92
2022/09/01 12:57:58;;;;;;;1.05;0.90;;;;;;;;;;8497301;27;21740;-92
2022/09/01 13:02:36;;;;;;;1.70;0.85;;;;;;;;;;8509636;27;20126;-92
2022/09/01 13:06:56;;;;;;;1.05;0.80;;;;;;;;;;8505195;27;20422;-92
2022/09/01 13:11:28;;;;;;;1.48;0.85;;;;;;;;;;8503791;27;20122;-92
2022/09/01 13:15:43;;;;;;;0.77;0.70;;;;;;;;;;8513186;27;20741;-92
2022/09/01 13:19:58;;;;;;;2.35;0.73;;;;;;;;;;8503997;27;20066;-92
2022/09/01 13:24:19;;;;;;;2.33;1.00;;;;;;;;;;8501264;27;20092;-92
2022/09/01 13:28:27;;;;;;;1.33;1.00;;;;;;;;;;8518613;27;20402;-92
2022/09/01 13:32:40;;;;;;;0.55;0.55;;;;;;;;;;8503608;27;20102;-92
2022/09/01 13:36:59;;;;;;;1.02;0.70;;;;;;;;;;8485105;27;20504;-93
2022/09/01 13:41:09;;;;;;;1.85;0.90;;;;;;;;;;8507818;27;20114;-91
2022/09/01 13:45:31;;;;;;;0.65;0.65;;;;;;;;;;8518980;27;20039;-92
2022/09/01 13:49:38;;;;;;;2.55;0.68;;;;;;;;;;8515345;27;20131;-91
2022/09/01 13:53:41;;;;;;;1.90;0.80;;;;;;;;;;8522526;27;20043;-91
2022/09/01 13:57:43;;;;;;;1.08;0.50;;;;;;;;;;8524682;27;20053;-91
2022/09/01 14:01:47;;;;;;;0.55;0.52;;;;;;;;;;8519058;27;20039;-91
2022/09/01 14:05:50;;;;;;;1.10;0.90;;;;;;;;;;8501940;27;20485;-92
2022/09/01 14:09:53;;;;;;;1.25;0.63;;;;;;;;;;8501645;27;20074;-92
2022/09/01 14:13:56;;;;;;;0.65;0.65;;;;;;;;;;8501551;27;20498;-91
2022/09/01 14:18:01;;;;;;;1.23;0.85;;;;;;;;;;8501328;27;20050;-92
2022/09/01 14:22:04;;;;;;;1.15;0.90;;;;;;;;;;8501404;27;20624;-92
2022/09/01 14:26:10;;;;;;;1.20;0.90;;;;;;;;;;8501176;27;20442;-91
2022/09/01 14:30:17;;;;;;;0.88;0.80;;;;;;;;;;8501084;27;20039;-91
2022/09/01 14:34:23;;;;;;;0.77;0.73;;;;;;;;;;8501052;27;20047;-91
2022/09/01 14:38:25;;;;;;;1.38;0.90;;;;;;;;;;8500855;27;20049;-91
2022/09/01 14:42:29;;;;;;;7.00;1.15;;;;;;;;;;8500765;27;20129;-91
2022/09/01 14:46:33;;;;;;;2.97;0.90;;;;;;;;;;8500504;27;20047;-91
2022/09/01 14:50:42;;;;;;;5.75;1.00;;;;;;;;;;8500164;27;20058;-91
2022/09/01 14:54:44;;;;;;;1.02;0.80;;;;;;;;;;8500242;27;20490;-91
2022/09/01 14:58:48;;;;;;;0.95;0.73;;;;;;;;;;8500219;27;20055;-91
2022/09/01 15:02:52;;;;;;;1.52;0.93;;;;;;;;;;8485834;27;20088;-93
2022/09/01 15:06:56;;;;;;;1.65;0.90;;;;;;;;;;8468276;27;20512;-93
2022/09/01 15:11:00;;;;;;;0.93;0.80;;;;;;;;;;8477648;27;20054;-91
2022/09/01 15:15:02;;;;;;;2.00;0.75;;;;;;;;;;8477523;27;20065;-91
2022/09/01 15:19:05;;;;;;;6.80;2.75;;;;;;;;;;8477265;27;20097;-92
2022/09/01 15:23:10;;;;;;;1.50;0.68;;;;;;;;;;8469714;27;20050;-91
2022/09/01 15:27:13;;;;;;;0.70;0.70;;;;;;;;;;8461639;27;20039;-91
2022/09/01 15:31:18;;;;;;;5.40;2.30;;;;;;;;;;8485426;27;20047;-91
2022/09/01 15:35:21;;;;;;;3.72;1.38;;;;;;;;;;8470769;27;21526;-91
2022/09/01 15:39:25;;;;;;;1.77;0.65;;;;;;;;;;8477551;27;20047;-91
2022/09/01 15:43:29;;;;;;;1.73;0.80;;;;;;;;;;8465713;27;20171;-92
2022/09/01 15:47:31;;;;;;;2.58;1.40;;;;;;;;;;8467688;27;20060;-92
2022/09/01 15:51:36;;;;;;;0.60;0.60;;;;;;;;;;8476394;27;20086;-92
2022/09/01 15:55:41;;;;;;;0.88;0.82;;;;;;;;;;8483385;27;20052;-91
2022/09/01 15:59:44;;;;;;;1.10;1.00;;;;;;;;;;8478173;27;20044;-92
2022/09/01 16:03:46;;;;;;;1.15;1.00;;;;;;;;;;8486199;27;20039;-91
2022/09/01 16:07:50;;;;;;;0.73;0.73;;;;;;;;;;8486173;27;20551;-92
2022/09/01 16:11:54;;;;;;;1.98;1.00;;;;;;;;;;8486347;27;20051;-92
2022/09/01 16:16:11;;;;;;;1.90;1.20;;;;;;;;;;8473353;27;20469;-91
2022/09/01 16:20:19;;;;;;;1.08;1.00;;;;;;;;;;8459331;27;20047;-92
2022/09/01 16:24:22;;;;;;;1.92;1.20;;;;;;;;;;8465821;27;20546;-91
2022/09/01 16:28:29;;;;;;;1.35;1.15;;;;;;;;;;8475575;27;20039;-92
2022/09/01 16:32:32;;;;;;;1.83;1.50;;;;;;;;;;8477512;27;20055;-91
2022/09/01 16:36:41;;;;;;;1.50;1.35;;;;;;;;;;8485420;27;20053;-92
2022/09/01 16:40:51;;;;;;;2.85;1.23;;;;;;;;;;8480927;27;20604;-91
2022/09/01 16:45:04;;;;;;;1.33;1.23;;;;;;;;;;8468922;27;20187;-90
2022/09/01 16:49:16;;;;;;;2.58;1.10;;;;;;;;;;8475264;27;20050;-91
2022/09/01 16:53:25;;;;;;;;;;;;;;;;;;8469622;28;20063;-91
2022/09/01 16:57:37;;;;;;;3.40;1.80;;;;;;;;;;8463497;28;19934;-90
2022/09/01 17:01:47;;;;;;;5.22;1.90;;;;;;;;;;8476267;28;20123;-91
2022/09/01 17:05:56;;;;;;;5.13;2.80;;;;;;;;;;8483488;28;20154;-92
2022/09/01 17:10:17;;;;;;;10.00;4.95;;;;;;;;;;8476388;28;20172;-91
2022/09/01 17:14:50;;;;;;;18.88;8.50;;;;;;;;;;8476329;28;20066;-91
2022/09/01 17:19:14;;;;;;;26.10;11.30;;;;;;;;;;8483357;28;20088;-91
2022/09/01 17:23:37;;;;;;;36.25;15.43;;;;;;;;;;8489440;28;20076;-91
2022/09/01 17:27:59;;;;;;;25.90;12.90;;;;;;;;;;8481705;28;20049;-90
2022/09/01 17:32:28;;;;;;;23.80;11.13;;;;;;;;;;8481348;28;20043;-91
2022/09/01 17:36:54;;;;;;;25.23;12.80;;;;;;;;;;8472124;28;20039;-91
2022/09/01 17:41:22;;;;;;;25.80;12.48;;;;;;;;;;8477848;27;20043;-91
2022/09/01 17:45:46;;;;;;;22.48;12.23;;;;;;;;;;8484706;27;20035;-91
2022/09/01 17:50:01;;;;;;;20.23;11.55;;;;;;;;;;8471497;27;20112;-90
2022/09/01 17:54:13;;;;;;;20.98;10.07;;;;;;;;;;8471996;27;20103;-91
2022/09/01 17:58:39;;;;;;;17.27;9.52;;;;;;;;;;8479473;27;20067;-90
2022/09/01 18:03:06;;;;;;;15.18;8.07;;;;;;;;;;8467069;28;20047;-89
2022/09/01 18:07:21;;;;;;;17.98;7.30;;;;;;;;;;8489676;27;20083;-89
2022/09/01 18:11:48;;;;;;;11.90;5.70;;;;;;;;;;8500720;27;20047;-90
2022/09/01 18:15:52;;;;;;;5.53;3.13;;;;;;;;;;8499110;27;20065;-89
2022/09/01 18:20:13;;;;;;;4.70;2.55;;;;;;;;;;8500687;27;20045;-90
2022/09/01 18:24:22;;;;;;;4.55;1.90;;;;;;;;;;8498160;27;20057;-89
2022/09/01 18:28:26;;;;;;;3.53;1.48;;;;;;;;;;8499287;27;20043;-89
2022/09/01 18:32:41;;;;;;;4.38;1.58;;;;;;;;;;8476431;27;20126;-90
2022/09/01 18:36:59;;;;;;;6.65;3.40;;;;;;;;;;8498806;27;20035;-90
2022/09/01 18:41:33;;;;;;;9.50;4.07;;;;;;;;;;8494347;27;20050;-90
2022/09/01 18:45:45;;;;;;;7.93;3.55;;;;;;;;;;8489668;27;20062;-90
2022/09/01 18:50:06;;;;;;;8.45;3.10;;;;;;;;;;8499539;27;20054;-90
2022/09/01 18:54:18;;;;;;;3.72;2.05;;;;;;;;;;8494638;27;20027;-89
2022/09/01 18:58:35;;;;;;;3.88;2.20;;;;;;;;;;8489114;27;20509;-90
2022/09/01 19:03:03;;;;;;;9.07;2.95;;;;;;;;;;8489004;27;20122;-89
2022/09/01 19:07:17;;;;;;;5.55;2.55;;;;;;;;;;8499123;27;20118;-90
2022/09/01 19:11:32;;;;;;;5.10;2.72;;;;;;;;;;8499003;27;20047;-89
2022/09/01 19:15:45;;;;;;;6.50;3.00;;;;;;;;;;8498797;27;20046;-89
2022/09/01 19:19:56;;;;;;;4.90;2.58;;;;;;;;;;8498881;27;20479;-90
2022/09/01 19:24:08;;;;;;;6.70;2.65;;;;;;;;;;8498632;27;20043;-90
2022/09/01 19:28:19;;;;;;;6.60;3.05;;;;;;;;;;8498513;27;20043;-89
2022/09/01 19:32:28;;;;;;;5.55;2.90;;;;;;;;;;8498376;27;20043;-90
2022/09/01 19:36:40;;;;;;;5.80;2.55;;;;;;;;;;8498698;27;20054;-90
2022/09/01 19:40:46;;;;;;;7.25;2.53;;;;;;;;;;8498158;27;20053;-89
2022/09/01 19:44:54;;;;;;;6.65;2.55;;;;;;;;;;8498036;27;20410;-89
2022/09/01 19:49:06;;;;;;;5.60;2.60;;;;;;;;;;8494189;27;20115;-89
2022/09/01 19:53:17;;;;;;;5.75;2.92;;;;;;;;;;8491294;27;20057;-89
2022/09/01 19:57:25;;;;;;;7.93;3.83;;;;;;;;;;8491449;27;20071;-89
2022/09/01 20:01:39;;;;;;;6.47;3.33;;;;;;;;;;8496973;27;20089;-89
2022/09/01 20:05:45;;;;;;;6.60;3.40;;;;;;;;;;8492470;27;20035;-90
2022/09/01 20:09:56;;;;;;;7.43;3.00;;;;;;;;;;8497233;27;20479;-89
2022/09/01 20:14:09;;;;;;;4.32;2.60;;;;;;;;;;8496889;27;20035;-89
2022/09/01 20:18:17;;;;;;;;;;;;;;;;;;8497430;27;20452;-90
2022/09/01 20:22:27;;;;;;;6.65;2.30;;;;;;;;;;8496863;27;20349;-89
2022/09/01 20:26:37;;;;;;;4.60;2.20;;;;;;;;;;8496934;27;20035;-89
2022/09/01 20:30:45;;;;;;;5.65;2.80;;;;;;;;;;8496629;27;20146;-90
2022/09/01 20:34:54;;;;;;;4.97;2.20;;;;;;;;;;8496596;27;20042;-89
2022/09/01 20:43:27;;;;;;;5.82;2.95;;;;;;;;;;8491114;27;20057;-89
2022/09/01 20:47:31;;;;;;;3.90;2.28;;;;;;;;;;8496175;27;20111;-89
2022/09/01 20:51:41;;;;;;;4.68;2.50;;;;;;;;;;8495926;28;20051;-89
2022/09/01 20:55:49;;;;;;;3.85;2.22;;;;;;;;;;8496176;28;20380;-89
2022/09/01 20:59:56;;;;;;;4.70;2.72;;;;;;;;;;8496145;28;20047;-89
2022/09/01 21:04:07;;;;;;;4.93;2.63;;;;;;;;;;8496067;28;20047;-89
2022/09/01 21:08:31;;;;;;;3.83;2.50;;;;;;;;;;8495996;28;20122;-89
2022/09/01 21:12:37;;;;;;;4.68;2.40;;;;;;;;;;8497919;27;20583;-89
2022/09/01 21:16:51;;;;;;;6.32;2.75;;;;;;;;;;8496911;27;20543;-89
2022/09/01 21:21:00;;;;;;;7.00;2.72;;;;;;;;;;8497901;27;20047;-89
2022/09/01 21:25:03;;;;;;;4.20;2.50;;;;;;;;;;8496539;27;20043;-89
2022/09/01 21:29:19;;;;;;;5.30;2.60;;;;;;;;;;8497768;27;20050;-89
2022/09/01 21:33:24;;;;;;;4.35;2.50;;;;;;;;;;8497207;27;20435;-89
2022/09/01 21:37:28;;;;;;;6.75;2.75;;;;;;;;;;8501980;27;20122;-89
2022/09/01 21:41:30;;;;;;;5.82;2.58;;;;;;;;;;8502011;27;20490;-89
2022/09/01 21:45:36;;;;;;;4.10;2.40;;;;;;;;;;8496653;27;20126;-89
2022/09/01 21:49:40;;;;;;;5.00;2.65;;;;;;;;;;8501472;27;20047;-89
2022/09/01 21:53:43;;;;;;;3.67;2.38;;;;;;;;;;8485307;27;20039;-89
2022/09/01 21:57:46;;;;;;;4.68;3.08;;;;;;;;;;8488326;27;20494;-89
2022/09/01 22:01:48;;;;;;;4.13;2.20;;;;;;;;;;8481936;27;20043;-89
2022/09/01 22:05:53;;;;;;;4.63;2.95;;;;;;;;;;8494206;27;20051;-89
2022/09/01 22:09:56;;;;;;;4.72;2.47;;;;;;;;;;8487325;27;20042;-90
2022/09/01 22:13:59;;;;;;;4.32;2.03;;;;;;;;;;8493270;27;20497;-89
2022/09/01 22:18:02;;;;;;;3.83;2.40;;;;;;;;;;8496032;27;20050;-90
2022/09/01 22:22:06;;;;;;;3.92;2.40;;;;;;;;;;8485908;27;20515;-89
2022/09/01 22:26:14;;;;;;;7.65;2.60;;;;;;;;;;8477995;27;20393;-90
2022/09/01 22:30:17;;;;;;;3.95;2.40;;;;;;;;;;8494971;27;20035;-92
2022/09/01 22:34:20;;;;;;;3.97;2.22;;;;;;;;;;8485891;27;20858;-90
2022/09/01 22:38:24;;;;;;;4.00;2.40;;;;;;;;;;8490381;27;20410;-90
2022/09/01 22:42:26;;;;;;;4.85;2.38;;;;;;;;;;8491699;27;20047;-91
2022/09/01 22:46:29;;;;;;;3.10;1.98;;;;;;;;;;8487348;27;20501;-91
2022/09/01 22:50:32;;;;;;;4.25;2.13;;;;;;;;;;8489643;27;20055;-89
2022/09/01 22:54:36;;;;;;;3.30;2.10;;;;;;;;;;8474864;27;20035;-90
2022/09/01 22:58:38;;;;;;;5.05;2.45;;;;;;;;;;8475764;27;20533;-90
2022/09/01 23:02:41;;;;;;;4.07;2.42;;;;;;;;;;8493953;27;20047;-89
2022/09/01 23:06:46;;;;;;;5.00;2.35;;;;;;;;;;8499203;27;20043;-90
2022/09/01 23:10:50;;;;;;;3.40;2.03;;;;;;;;;;8499052;27;20058;-91
2022/09/01 23:14:53;;;;;;;3.97;2.30;;;;;;;;;;8498817;27;20478;-89
2022/09/01 23:18:55;;;;;;;5.38;2.20;;;;;;;;;;8498763;27;20409;-90
2022/09/01 23:22:58;;;;;;;5.00;2.70;;;;;;;;;;8492174;27;20069;-90
2022/09/01 23:27:02;;;;;;;3.85;2.20;;;;;;;;;;8490485;27;20542;-90
2022/09/01 23:31:07;;;;;;;3.00;2.10;;;;;;;;;;8480686;27;20043;-90
2022/09/01 23:35:10;;;;;;;3.80;2.00;;;;;;;;;;8492040;27;20043;-90
2022/09/01 23:39:13;;;;;;;4.63;2.33;;;;;;;;;;8498284;27;20047;-90
2022/09/01 23:43:19;;;;;;;6.63;2.05;;;;;;;;;;8498219;27;20046;-91
2022/09/01 23:47:21;;;;;;;12.57;2.53;;;;;;;;;;8498045;27;20043;-90
2022/09/01 23:51:25;;;;;;;3.20;1.95;;;;;;;;;;8497498;27;20048;-90
2022/09/01 23:55:27;;;;;;;4.72;2.10;;;;;;;;;;8483277;27;20080;-91
2022/09/01 23:59:31;;;;;;;3.45;1.83;;;;;;;;;;8470061;27;20081;-89
